createdAt,value
2023-03-13T00:01:13.861Z,10.70
2023-03-13T00:03:41.948Z,10.70
2023-03-13T00:06:10.441Z,10.70
2023-03-13T00:08:38.226Z,10.70
2023-03-13T00:11:07.216Z,10.70
2023-03-13T00:13:35.756Z,10.70
2023-03-13T00:16:04.423Z,10.60
2023-03-13T00:18:33.546Z,10.70
2023-03-13T00:21:01.882Z,10.70
2023-03-13T00:23:30.577Z,10.70
2023-03-13T00:25:59.311Z,10.70
2023-03-13T00:28:31.899Z,10.70
2023-03-13T00:31:04.314Z,10.70
2023-03-13T00:33:34.286Z,10.60
2023-03-13T00:36:03.127Z,10.70
2023-03-13T00:38:31.470Z,10.70
2023-03-13T00:41:03.091Z,10.70
2023-03-13T00:43:31.162Z,10.70
2023-03-13T00:45:59.020Z,10.70
2023-03-13T00:48:26.853Z,10.70
2023-03-13T00:50:56.120Z,10.70
2023-03-13T00:53:24.447Z,10.70
2023-03-13T00:55:54.097Z,10.70
2023-03-13T00:58:22.377Z,10.70
2023-03-13T05:01:42.307Z,10.50
2023-03-13T05:04:10.946Z,10.40
2023-03-13T05:06:38.973Z,10.30
2023-03-13T05:09:07.289Z,10.40
2023-03-13T05:11:35.397Z,10.40
2023-03-13T05:14:04.511Z,10.40
2023-03-13T05:16:32.357Z,10.40
2023-03-13T05:19:01.472Z,10.40
2023-03-13T05:21:29.314Z,10.40
2023-03-13T05:23:57.483Z,10.40
2023-03-13T05:26:25.276Z,10.40
2023-03-13T05:28:53.120Z,10.40
2023-03-13T05:31:21.128Z,10.50
2023-03-13T05:33:48.930Z,10.50
2023-03-13T05:36:18.062Z,10.50
2023-03-13T05:38:45.899Z,10.50
2023-03-13T05:41:16.895Z,10.50
2023-03-13T05:43:44.670Z,10.50
2023-03-13T05:46:12.589Z,10.60
2023-03-13T05:48:40.388Z,10.60
2023-03-13T05:51:08.125Z,10.60
2023-03-13T05:53:37.281Z,10.60
2023-03-13T05:56:05.707Z,10.60
2023-03-13T05:58:33.511Z,10.60
2023-03-13T06:01:06.454Z,10.60
2023-03-13T06:03:34.366Z,10.70
2023-03-13T06:06:02.233Z,10.70
2023-03-13T06:08:30.340Z,10.70
2023-03-13T06:11:01.604Z,10.80
2023-03-13T06:13:29.552Z,10.90
2023-03-13T06:15:58.925Z,10.90
2023-03-13T06:18:27.933Z,10.90
2023-03-13T06:21:00.110Z,11.00
2023-03-13T06:23:28.545Z,11.10
2023-03-13T06:25:56.710Z,11.10
2023-03-13T06:28:25.823Z,11.10
2023-03-13T06:30:53.597Z,11.10
2023-03-13T06:33:21.597Z,11.10
2023-03-13T06:35:56.712Z,11.20
2023-03-13T06:38:25.177Z,11.20
2023-03-13T06:40:53.243Z,11.20
2023-03-13T06:43:21.262Z,11.20
2023-03-13T06:45:50.804Z,11.30
2023-03-13T06:48:19.213Z,11.30
2023-03-13T06:50:47.175Z,11.40
2023-03-13T06:53:17.613Z,11.40
2023-03-13T06:55:46.029Z,11.40
2023-03-13T06:58:28.806Z,11.50
2023-03-13T07:01:00.898Z,11.50
2023-03-13T07:03:28.721Z,11.50
2023-03-13T07:05:57.501Z,11.60
2023-03-13T07:08:26.095Z,11.60
2023-03-13T07:10:54.566Z,11.60
2023-03-13T07:13:22.666Z,11.60
2023-03-13T07:15:51.447Z,11.70
2023-03-13T07:18:20.800Z,11.70
2023-03-13T07:20:54.228Z,11.80
2023-03-13T07:23:22.239Z,11.80
2023-03-13T07:25:57.117Z,11.70
2023-03-13T07:28:25.943Z,11.80
2023-03-13T07:30:54.405Z,11.80
2023-03-13T07:33:23.591Z,11.80
2023-03-13T07:35:52.679Z,11.90
2023-03-13T07:38:21.009Z,11.90
2023-03-13T07:40:50.381Z,11.90
2023-03-13T07:43:18.324Z,11.90
2023-03-13T07:45:56.614Z,12.00
2023-03-13T07:48:27.028Z,12.00
2023-03-13T07:50:56.151Z,12.00
2023-03-13T07:53:24.414Z,12.10
2023-03-13T07:55:57.322Z,12.10
2023-03-13T07:58:26.411Z,12.20
2023-03-13T08:00:54.662Z,12.20
2023-03-13T08:03:23.372Z,12.20
2023-03-13T08:06:00.642Z,12.20
2023-03-13T08:08:28.530Z,12.30
2023-03-13T08:11:01.328Z,12.40
2023-03-13T08:13:29.672Z,12.40
2023-03-13T08:16:05.363Z,12.40
2023-03-13T08:18:35.063Z,12.50
2023-03-13T08:21:05.632Z,12.50
2023-03-13T08:26:06.398Z,12.60
2023-03-13T08:28:34.486Z,12.60
2023-03-13T08:31:09.317Z,12.60
2023-03-13T08:33:37.594Z,12.70
2023-03-13T08:36:18.204Z,12.80
2023-03-13T08:38:47.264Z,12.90
2023-03-13T08:41:16.474Z,13.00
2023-03-13T08:43:45.402Z,13.10
2023-03-13T08:46:13.866Z,13.20
2023-03-13T08:48:41.996Z,13.30
2023-03-13T08:51:12.036Z,13.40
2023-03-13T08:53:42.442Z,13.40
2023-03-13T08:56:12.043Z,13.50
2023-03-13T08:58:39.905Z,13.50
2023-03-13T09:01:09.357Z,13.60
2023-03-13T09:03:37.521Z,13.60
2023-03-13T09:06:05.745Z,13.60
2023-03-13T09:08:34.779Z,13.60
2023-03-13T09:11:06.003Z,13.60
2023-03-13T09:13:35.865Z,13.70
2023-03-13T09:16:08.277Z,13.70
2023-03-13T09:18:36.699Z,13.80
2023-03-13T09:21:07.495Z,13.80
2023-03-13T09:23:35.453Z,13.80
2023-03-13T09:26:04.687Z,13.80
2023-03-13T09:28:33.316Z,13.80
2023-03-13T09:31:09.340Z,13.80
2023-03-13T09:33:37.938Z,13.90
2023-03-13T09:36:06.419Z,14.00
2023-03-13T09:38:34.586Z,14.00
2023-03-13T09:41:15.829Z,13.90
2023-03-13T09:43:47.810Z,14.00
2023-03-13T09:46:24.125Z,14.10
2023-03-13T09:48:57.194Z,14.10
2023-03-13T09:51:29.154Z,14.10
2023-03-13T09:54:02.990Z,14.10
2023-03-13T09:56:42.909Z,14.10
2023-03-13T09:59:17.941Z,14.10
2023-03-13T10:01:47.410Z,14.10
2023-03-13T10:04:30.544Z,14.10
2023-03-13T10:06:58.556Z,14.10
2023-03-13T10:09:31.287Z,14.10
2023-03-13T10:12:08.769Z,14.10
2023-03-13T10:14:44.329Z,14.10
2023-03-13T10:17:21.943Z,14.20
2023-03-13T10:19:56.923Z,14.20
2023-03-13T10:22:27.614Z,14.30
2023-03-13T10:24:59.432Z,14.40
2023-03-13T10:27:28.772Z,14.40
2023-03-13T10:29:56.611Z,14.40
2023-03-13T10:32:24.555Z,14.50
2023-03-13T10:34:56.985Z,14.60
2023-03-13T10:37:26.725Z,14.60
2023-03-13T10:39:54.917Z,14.60
2023-03-13T10:42:28.243Z,14.70
2023-03-13T10:45:07.263Z,14.60
2023-03-13T10:47:36.473Z,14.60
2023-03-13T10:50:05.985Z,16.30
2023-03-13T10:52:36.840Z,14.60
2023-03-13T10:55:06.534Z,14.70
2023-03-13T10:57:36.411Z,14.70
2023-03-13T11:00:24.445Z,14.80
2023-03-13T11:02:53.307Z,14.90
2023-03-13T11:05:39.176Z,14.90
2023-03-13T11:08:25.405Z,14.90
2023-03-13T11:10:56.879Z,14.90
2023-03-13T11:13:37.455Z,15.00
2023-03-13T11:16:21.995Z,15.00
2023-03-13T11:19:09.149Z,15.10
2023-03-13T11:21:46.330Z,15.10
2023-03-13T11:24:21.032Z,15.00
2023-03-13T11:27:04.636Z,15.00
2023-03-13T11:29:41.103Z,15.00
2023-03-13T11:32:21.958Z,15.00
2023-03-13T11:34:55.011Z,15.00
2023-03-13T11:37:24.148Z,15.00
2023-03-13T11:42:43.598Z,15.00
2023-03-13T11:45:30.607Z,15.00
2023-03-13T11:50:36.799Z,15.00
2023-03-13T11:53:22.651Z,15.00
2023-03-13T11:56:02.910Z,15.10
2023-03-13T11:58:44.623Z,15.10
2023-03-13T12:01:15.817Z,15.10
2023-03-13T12:03:56.471Z,15.20
2023-03-13T12:06:31.665Z,15.20
2023-03-13T12:09:07.694Z,15.20
2023-03-13T12:11:43.524Z,15.30
2023-03-13T12:14:16.346Z,15.40
2023-03-13T12:16:48.455Z,15.40
2023-03-13T12:19:22.534Z,15.50
2023-03-13T12:21:53.878Z,15.60
2023-03-13T12:24:28.473Z,15.60
2023-03-13T12:27:01.792Z,15.60
2023-03-13T12:29:40.999Z,15.60
2023-03-13T12:32:15.322Z,15.70
2023-03-13T12:34:56.392Z,15.70
2023-03-13T12:37:30.784Z,15.70
2023-03-13T12:40:07.083Z,15.70
2023-03-13T12:42:47.007Z,15.60
2023-03-13T12:45:18.636Z,15.60
2023-03-13T12:48:17.622Z,15.60
2023-03-13T12:51:00.160Z,15.60
2023-03-13T12:53:42.070Z,15.50
2023-03-13T12:58:50.991Z,15.50
2023-03-13T13:01:30.297Z,15.50
2023-03-13T13:04:01.275Z,15.50
2023-03-13T13:06:51.804Z,15.50
2023-03-13T13:09:24.170Z,15.60
2023-03-13T13:11:55.100Z,15.50
2023-03-13T13:14:58.263Z,15.60
2023-03-13T13:17:36.300Z,15.60
2023-03-13T13:20:55.205Z,15.60
2023-03-13T13:23:27.748Z,15.80
2023-03-13T13:25:57.425Z,16.00
2023-03-13T13:28:33.016Z,16.20
2023-03-13T13:31:01.029Z,16.20
2023-03-13T13:33:41.981Z,16.30
2023-03-13T13:36:30.838Z,16.40
2023-03-13T13:41:38.715Z,16.40
2023-03-13T13:46:52.208Z,16.60
2023-03-13T13:49:24.520Z,16.80
2023-03-13T13:52:40.947Z,17.10
2023-03-13T13:55:32.972Z,17.20
2023-03-13T13:58:05.638Z,17.30
2023-03-13T14:00:42.674Z,17.40
2023-03-13T14:05:53.072Z,17.70
2023-03-13T14:08:25.499Z,17.70
2023-03-13T14:11:12.840Z,17.70
2023-03-13T14:13:41.006Z,17.70
2023-03-13T14:16:24.309Z,17.70
2023-03-13T14:18:53.100Z,17.70
2023-03-13T14:21:23.639Z,17.60
2023-03-13T14:23:52.014Z,17.60
2023-03-13T14:26:23.561Z,17.60
2023-03-13T14:28:53.230Z,17.60
2023-03-13T14:31:30.222Z,17.60
2023-03-13T14:33:59.489Z,17.60
2023-03-13T14:36:28.198Z,17.60
2023-03-13T14:38:57.768Z,17.60
2023-03-13T14:41:31.241Z,17.60
2023-03-13T14:44:07.775Z,17.70
2023-03-13T14:46:37.653Z,17.70
2023-03-13T14:49:16.004Z,17.70
2023-03-13T14:51:44.029Z,15.30
2023-03-13T14:54:28.300Z,17.80
2023-03-13T14:57:21.086Z,17.70
2023-03-13T14:59:49.490Z,17.70
2023-03-13T15:02:23.129Z,17.80
2023-03-13T15:05:00.178Z,17.70
2023-03-13T15:07:36.219Z,17.70
2023-03-13T15:10:18.810Z,17.70
2023-03-13T15:12:47.947Z,17.60
2023-03-13T15:15:15.959Z,17.60
2023-03-13T15:17:44.058Z,17.60
2023-03-13T15:20:14.730Z,17.50
2023-03-13T15:22:45.135Z,17.30
2023-03-13T15:25:17.434Z,16.10
2023-03-13T15:27:46.626Z,16.00
2023-03-13T15:30:16.543Z,15.40
2023-03-13T15:32:46.576Z,15.00
2023-03-13T15:35:27.183Z,14.10
2023-03-13T15:37:55.034Z,13.70
2023-03-13T15:40:24.214Z,13.70
2023-03-13T15:42:53.732Z,13.40
2023-03-13T15:45:21.670Z,13.50
2023-03-13T15:47:49.932Z,13.50
2023-03-13T15:50:20.142Z,13.60
2023-03-13T15:52:48.010Z,13.70
2023-03-13T15:55:16.015Z,13.60
2023-03-13T15:57:46.954Z,13.60
2023-03-13T16:00:19.991Z,13.60
2023-03-13T16:02:47.902Z,13.60
2023-03-13T16:05:16.352Z,13.60
2023-03-13T16:07:44.161Z,13.60
2023-03-13T16:10:17.843Z,13.50
2023-03-13T16:12:53.544Z,13.50
2023-03-13T16:15:21.774Z,13.50
2023-03-13T16:17:49.575Z,13.50
2023-03-13T16:20:20.878Z,13.60
2023-03-13T16:22:48.761Z,13.60
2023-03-13T16:25:17.024Z,13.60
2023-03-13T16:27:44.910Z,13.60
2023-03-13T16:30:19.708Z,13.60
2023-03-13T16:32:47.638Z,13.60
2023-03-13T16:35:17.736Z,13.80
2023-03-13T16:37:45.856Z,13.80
2023-03-13T16:40:18.907Z,13.80
2023-03-13T16:42:46.857Z,13.80
2023-03-13T16:45:15.404Z,13.80
2023-03-13T16:47:46.034Z,13.80
2023-03-13T16:50:26.589Z,13.80
2023-03-13T16:52:55.785Z,13.70
2023-03-13T16:55:28.078Z,13.70
2023-03-13T16:57:56.258Z,13.60
2023-03-13T17:00:25.429Z,13.50
2023-03-13T17:02:56.380Z,13.40
2023-03-13T17:05:25.315Z,13.30
2023-03-13T17:07:54.220Z,13.30
2023-03-13T17:10:24.789Z,13.30
2023-03-13T17:12:52.606Z,13.40
2023-03-13T17:15:21.654Z,13.40
2023-03-13T17:17:52.374Z,13.40
2023-03-13T17:20:23.447Z,13.40
2023-03-13T17:22:51.653Z,13.40
2023-03-13T17:25:19.613Z,13.40
2023-03-13T17:27:48.414Z,13.30
2023-03-13T17:30:23.010Z,13.30
2023-03-13T17:32:51.017Z,13.40
2023-03-13T17:35:21.301Z,13.40
2023-03-13T17:37:49.768Z,13.40
2023-03-13T17:40:19.914Z,13.40
2023-03-13T17:42:47.945Z,13.40
2023-03-13T17:45:16.077Z,13.40
2023-03-13T17:47:43.848Z,13.40
2023-03-13T17:50:20.533Z,13.50
2023-03-13T17:52:49.820Z,13.50
2023-03-13T17:55:17.695Z,13.50
2023-03-13T17:57:46.008Z,13.50
2023-03-13T18:00:22.603Z,13.50
2023-03-13T18:02:50.662Z,13.50
2023-03-13T18:05:18.575Z,13.50
2023-03-13T18:07:46.579Z,13.50
2023-03-13T18:10:20.405Z,13.40
2023-03-13T18:12:48.482Z,13.40
2023-03-13T18:15:16.341Z,13.40
2023-03-13T18:17:44.474Z,13.40
2023-03-13T18:20:16.676Z,13.40
2023-03-13T18:22:44.488Z,13.40
2023-03-13T18:25:12.620Z,13.30
2023-03-13T18:27:42.054Z,13.30
2023-03-13T18:30:16.931Z,13.30
2023-03-13T18:32:44.781Z,13.30
2023-03-13T18:35:13.593Z,13.30
2023-03-13T18:37:42.009Z,13.20
2023-03-13T18:40:17.810Z,13.20
2023-03-13T18:42:47.045Z,13.30
2023-03-13T18:45:16.369Z,13.30
2023-03-13T18:47:44.977Z,13.20
2023-03-13T18:50:20.317Z,13.30
2023-03-13T18:52:48.187Z,13.30
2023-03-13T18:55:16.166Z,13.30
2023-03-13T18:57:44.008Z,13.30
2023-03-13T19:00:21.151Z,13.40
2023-03-13T19:02:49.480Z,13.40
2023-03-13T19:05:18.057Z,13.30
2023-03-13T19:07:46.297Z,13.30
2023-03-13T19:10:20.762Z,13.20
2023-03-13T19:12:48.993Z,13.10
2023-03-13T19:15:18.640Z,13.10
2023-03-13T19:17:46.589Z,13.00
2023-03-13T19:20:16.770Z,13.10
2023-03-13T19:22:44.580Z,13.10
2023-03-13T19:25:14.073Z,13.10
2023-03-13T19:30:19.255Z,11.30
2023-03-13T19:32:47.202Z,13.20
2023-03-13T19:35:18.598Z,13.10
2023-03-13T19:37:46.777Z,13.10
2023-03-13T19:40:19.348Z,13.20
2023-03-13T19:42:47.247Z,13.20
2023-03-13T19:45:18.436Z,13.30
2023-03-13T19:47:47.596Z,13.20
2023-03-13T19:50:20.467Z,13.20
2023-03-13T19:52:48.257Z,13.10
2023-03-13T19:55:16.807Z,13.10
2023-03-13T19:57:44.689Z,13.10
2023-03-13T20:00:20.193Z,13.10
2023-03-13T20:02:49.447Z,13.20
2023-03-13T20:05:17.428Z,13.20
2023-03-13T20:07:45.430Z,13.20
2023-03-13T20:10:13.595Z,13.10
2023-03-13T20:12:41.639Z,13.00
2023-03-13T20:15:10.789Z,12.90
2023-03-13T20:17:38.552Z,12.90
2023-03-13T20:20:09.680Z,12.90
2023-03-13T20:22:37.493Z,12.90
2023-03-13T20:25:05.846Z,12.80
2023-03-13T20:27:33.643Z,12.80
2023-03-13T20:30:01.644Z,12.80
2023-03-13T20:32:29.519Z,12.80
2023-03-13T20:34:57.311Z,12.70
2023-03-13T20:37:26.482Z,12.70
2023-03-13T20:39:54.274Z,12.60
2023-03-13T20:42:22.588Z,12.50
2023-03-13T20:44:50.403Z,12.50
2023-03-13T20:47:18.574Z,12.40
2023-03-13T20:49:46.376Z,12.40
2023-03-13T20:52:14.133Z,12.50
2023-03-13T20:54:43.325Z,12.30
2023-03-13T20:57:11.143Z,12.30
2023-03-13T20:59:42.389Z,12.30
2023-03-13T21:02:10.752Z,12.10
2023-03-13T21:04:38.871Z,12.00
2023-03-13T21:07:06.634Z,12.00
2023-03-13T21:09:35.353Z,12.00
2023-03-13T21:12:04.825Z,11.90
2023-03-13T21:14:33.384Z,11.90
2023-03-13T21:17:02.454Z,11.90
2023-03-13T21:19:30.607Z,11.80
2023-03-13T21:21:58.497Z,11.90
2023-03-13T21:24:26.442Z,11.80
2023-03-13T21:26:55.190Z,11.80
2023-03-13T21:29:24.392Z,11.80
2023-03-13T21:31:52.204Z,11.80
2023-03-13T21:36:48.245Z,11.80
2023-03-13T21:39:16.092Z,11.80
2023-03-13T21:41:43.939Z,11.80
2023-03-13T21:44:12.660Z,11.70
2023-03-13T21:46:41.863Z,11.80
2023-03-13T21:49:09.719Z,11.80
2023-03-13T21:51:37.484Z,11.80
2023-03-13T21:54:05.604Z,11.80
2023-03-13T21:56:33.338Z,11.80
2023-03-13T21:59:01.303Z,11.80
2023-03-13T22:01:29.170Z,11.80
2023-03-13T22:03:58.375Z,11.80
2023-03-13T22:06:26.215Z,11.70
2023-03-13T22:08:54.160Z,11.70
2023-03-13T22:11:21.968Z,11.70
2023-03-13T22:13:49.858Z,11.50
2023-03-13T22:16:17.892Z,11.50
2023-03-13T22:18:45.762Z,11.50
2023-03-13T22:21:15.835Z,11.40
2023-03-13T22:23:43.583Z,11.40
2023-03-13T22:26:11.801Z,11.40
2023-03-13T22:28:39.677Z,11.40
2023-03-13T22:31:09.303Z,11.40
2023-03-13T22:33:37.072Z,11.40
2023-03-13T22:36:06.273Z,11.40
2023-03-13T22:38:38.854Z,11.40
2023-03-13T22:41:09.171Z,11.40
2023-03-13T22:43:36.958Z,11.30
2023-03-13T22:46:05.165Z,11.30
2023-03-13T22:48:32.994Z,11.30
2023-03-13T22:51:02.876Z,11.30
2023-03-13T22:53:30.781Z,11.30
2023-03-13T22:55:59.953Z,11.40
2023-03-13T22:58:28.484Z,11.30
2023-03-13T23:00:56.593Z,11.40
2023-03-13T23:03:24.620Z,11.30
2023-03-13T23:08:20.483Z,11.40
2023-03-13T23:10:48.723Z,11.40
2023-03-13T23:13:17.824Z,11.40
2023-03-13T23:15:55.623Z,11.50
2023-03-13T23:18:24.131Z,11.50
2023-03-13T23:20:52.100Z,11.60
2023-03-13T23:23:20.036Z,11.50
2023-03-13T23:25:47.831Z,11.50
2023-03-13T23:28:18.812Z,11.40
2023-03-13T23:30:46.587Z,11.50
2023-03-13T23:33:14.384Z,11.40
2023-03-13T23:35:46.369Z,11.40
2023-03-13T23:38:18.157Z,11.40
2023-03-13T23:40:48.060Z,11.30
2023-03-13T23:43:17.125Z,11.30
2023-03-13T23:48:13.156Z,11.30
